Aeroporto :
LOGIN :

Iscrizione | Disclaimer

   EN    FR    IT 

 










Sommario :    VFR   VFR Marginale   IFR   IFR Intensivo   IFR Molto Intensivo
Visibilità : 
Base nubi : 
>= 8 km
>= 3000ft
5 / 8 km
1000 / 3000 ft
1500m / 5 km
500 / 1000 ft
800 / 1500m
200 / 500 ft
< 800m
< 200 ft
Simboli :   Temporali  Nebbia  Neve Forte  Precipitazioni Forti  Vento > 20 kt
SIGMETs :   Varie  Temporali  Ghiacco  Turbolenza  Onda orograficha  Ceneri Vulcaniche






- Altitudine del aeroporto : -11 ft
- Codice IATA : AMS


EHAM - Amsterdam Schiphol

ULTIMO METAR :
  • 261525Z 28016KT 260V320 9999 VCSH FEW015 SCT020CB BKN037 06/03 Q1001 TEMPO 7000 SHRAGS

METARs OBSOLETI :
  • 261455Z 29018KT 8000 -SHRA FEW015 SCT022CB BKN037 05/02 Q1001 TEMPO 7000 SHRAGS
  • 261425Z 30016KT 9999 FEW015 SCT022CB BKN037 06/03 Q1000 TEMPO 7000 SHRAGS
  • 261355Z 30015KT 270V340 9999 FEW015 SCT022CB BKN037 06/03 Q1000 TEMPO 7000 SHRAGS
  • 261325Z 28015KT 250V310 9999 -SHRA FEW017 SCT022CB SCT045 05/02 Q1000 TEMPO 7000 SHRAGS
  • 261255Z 29015KT 9999 -SHRA FEW017 SCT022CB SCT045 06/02 Q0999 TEMPO 7000 SHRAGS

TAF TAF EHAM
Valido dal 26 a 12 ore il 27 a 18 ore UTC


261101Z 2612/2718 29016G26KT 9999 SCT025
TEMPO 2612/2701 7000 -SHRAGS FEW025CB
PROB40
TEMPO 2612/2615 4500 SHRAGS TSRAGS BKN012 SCT020CB
BECMG 2617/2620 27010KT
PROB30
TEMPO 2621/2624 28016G26KT 3500 SHRAGS TSRAGSSN SCT012 SCT020CB BKN025
BECMG 2700/2703 21007KT
BECMG 2708/2711 14008KT 6000 -RA -RASN SCT006 BKN012
PROB30
TEMPO 2711/2716 VRB03KT 2500 SNRA BKN004
BECMG 2713/2716 30008KT 9999
TEMPO 2716/2718 6000 SHRAGS TSRAGS SCT006 BKN012 SCT020CB



MetMap, La meteo Aeronautica in un colpo d'occhio ! - Copyright ORBIFLY Dicembre 2007 - Disclaimer

ORBIFLY MET'MAP TEAM :

Programmazione e sviluppo : Alexandra Zaïnal
Concezione : Baudouin d'Aumeries
Aiuto per la programmazione : Marc-Olivier Méhu
Supporto tecnico e logistico : Manuel Goepfert
Aiuto per la traduzione : Arnaldo La Scala

Contatto : metmap@orbifly.com




FONTI E CREDITI :

   NOAA